Cypress, Louisiana
Current Conditions -  °F | °C
As of 2:55 PM on Tuesday 25 Nov 2014 (Local Time) from KIER Reporting Station
Clear Clear  
Wind Chill: 60°   Ceiling: Unl
Heat Index: 60°   Visibility: 10mi
Dew Point: 30°   Wind: 0mph
Humidity: 32%   Direction: NA
Pressure: 30.2"   Gusts: NA
Location:  31.7831°N, 93.1496°W
Report Text: KIER 252055Z AUTO 00000KT 10SM CLR 16/M01 A3020 RMK AO2 T01561011
Loading
Personal Weather Stations






























Interactive Weather Map New forecast layout! Learn more

10-Day Weather Forecast

Advertisements
Track Severe Weather on mobile